Time;durP1;ratioP1;P1;durP2;ratioP2;P2;SDS_P1;SDS_P2;PMS_P1;PMS_P2;Temp;Humidity;BMP_temperature;BMP_pressure;BME280_temperature;BME280_humidity;BME280_pressure;Samples;Min_cycle;Max_cycle;Signal;HPM_P1;HPM_P2
2022/04/02 00:01:22;;;;;;;29.85;14.85;;;;;;;2.91;70.19;98891.13;5000265;28;20052;-83
2022/04/02 00:03:49;;;;;;;31.30;14.30;;;;;;;2.77;70.46;98906.06;4997467;28;20044;-83
2022/04/02 00:06:16;;;;;;;30.35;14.23;;;;;;;2.76;70.25;98887.81;5002164;28;20643;-83
2022/04/02 00:08:43;;;;;;;36.38;14.82;;;;;;;2.79;70.75;98896.28;4986157;28;20048;-83
2022/04/02 00:11:10;;;;;;;30.58;14.00;;;;;;;2.71;70.67;98901.25;4980589;28;20041;-83
2022/04/02 00:13:38;;;;;;;30.65;14.32;;;;;;;2.62;71.07;98894.06;5021422;28;20488;-83
2022/04/02 00:16:05;;;;;;;27.02;13.50;;;;;;;2.73;70.72;98896.75;4999817;28;20445;-84
2022/04/02 00:18:32;;;;;;;32.67;13.45;;;;;;;2.81;70.21;98898.81;5001307;28;20037;-84
2022/04/02 00:20:59;;;;;;;29.00;14.13;;;;;;;2.66;70.53;98892.03;4986025;28;20086;-84
2022/04/02 00:23:43;;;;;;;31.70;13.77;;;;;;;2.66;70.16;98892.03;4984835;28;20045;-83
2022/04/02 00:26:15;;;;;;;28.13;13.55;;;;;;;2.59;70.14;98895.06;4987829;28;20041;-84
2022/04/02 00:28:44;;;;;;;29.40;12.73;;;;;;;2.82;69.52;98892.59;4982305;28;20056;-84
2022/04/02 00:31:14;;;;;;;27.83;13.70;;;;;;;2.61;70.74;98889.75;4995725;28;20505;-84
2022/04/02 00:33:45;;;;;;;26.02;12.90;;;;;;;2.52;71.35;98906.97;4988028;28;20045;-83
2022/04/02 00:36:15;;;;;;;25.58;12.23;;;;;;;2.57;70.93;98898.75;4999895;28;20053;-83
2022/04/02 00:38:42;;;;;;;35.22;13.90;;;;;;;2.69;70.34;98913.63;5000323;28;20041;-83
2022/04/02 00:41:09;;;;;;;33.47;13.95;;;;;;;2.70;69.72;98896.97;5009455;28;20349;-83
2022/04/02 00:43:39;;;;;;;29.75;13.13;;;;;;;2.57;70.40;98896.13;4976423;28;20432;-83
2022/04/02 00:46:07;;;;;;;32.45;13.45;;;;;;;2.68;69.63;98914.56;4998813;28;20401;-83
2022/04/02 00:48:35;;;;;;;29.95;13.35;;;;;;;2.68;69.69;98898.03;5012274;28;20521;-83
2022/04/02 00:51:05;;;;;;;26.20;12.90;;;;;;;2.85;68.88;98900.28;4976988;28;20517;-83
2022/04/02 00:53:38;;;;;;;26.55;13.00;;;;;;;2.66;69.93;98898.13;4994515;28;20052;-83
2022/04/02 00:56:05;;;;;;;25.88;12.48;;;;;;;2.71;70.01;98890.75;4970935;28;20054;-83
2022/04/02 00:58:32;;;;;;;30.20;14.27;;;;;;;2.61;70.15;98895.81;4977350;28;20539;-83
2022/04/02 01:01:00;;;;;;;36.45;14.40;;;;;;;2.78;69.68;98901.66;4997401;28;20512;-83
2022/04/02 01:03:34;;;;;;;34.22;13.77;;;;;;;2.72;69.02;98895.06;4983680;28;20046;-83
2022/04/02 01:06:02;;;;;;;37.28;13.43;;;;;;;2.63;70.07;98895.72;4973422;28;20052;-83
2022/04/02 01:08:35;;;;;;;34.75;13.57;;;;;;;2.69;69.17;98897.88;5000243;28;20056;-82
2022/04/02 01:11:02;;;;;;;32.17;13.63;;;;;;;2.61;69.91;98908.91;4961435;28;20065;-83
2022/04/02 01:13:56;;;;;;;29.73;15.43;;;;;;;2.58;70.25;98900.44;4972753;28;20560;-82
2022/04/02 01:16:23;;;;;;;35.75;14.90;;;;;;;2.62;70.26;98907.16;4933688;28;20490;-82
2022/04/02 01:18:57;;;;;;;31.45;13.65;;;;;;;2.62;69.89;98912.41;4968105;28;20045;-83
2022/04/02 01:21:29;;;;;;;27.75;13.30;;;;;;;2.44;70.33;98898.78;4973295;28;20097;-82
2022/04/02 01:24:00;;;;;;;32.15;14.23;;;;;;;2.43;70.06;98907.59;4988348;28;20044;-82
2022/04/02 01:26:29;;;;;;;29.35;13.32;;;;;;;2.34;70.51;98914.31;4972830;28;20053;-83
2022/04/02 01:29:08;;;;;;;28.13;12.52;;;;;;;2.52;70.18;98908.72;4926043;28;20049;-83
2022/04/02 01:31:44;;;;;;;30.35;13.15;;;;;;;2.45;69.73;98912.75;4986983;28;20045;-83
2022/04/02 01:34:13;;;;;;;34.35;13.43;;;;;;;2.38;70.85;98914.94;4953300;28;20049;-82
2022/04/02 01:36:43;;;;;;;28.80;13.20;;;;;;;2.35;71.01;98921.22;4982702;28;20058;-83
2022/04/02 01:39:25;;;;;;;29.88;12.93;;;;;;;2.45;70.58;98915.38;4915752;28;20056;-82
2022/04/02 01:41:51;;;;;;;53.45;14.18;;;;;;;2.38;70.86;98917.56;4967461;28;20041;-83
2022/04/02 01:44:26;;;;;;;30.10;12.75;;;;;;;2.38;70.16;98928.03;4930858;28;20103;-83
2022/04/02 01:46:53;;;;;;;25.38;11.95;;;;;;;2.36;70.42;98917.66;4957096;28;20398;-82
2022/04/02 01:49:21;;;;;;;25.17;13.18;;;;;;;2.46;69.87;98920.47;5009378;28;20049;-83
2022/04/02 01:51:49;;;;;;;27.45;13.13;;;;;;;2.52;70.02;98925.31;4989481;28;20492;-82
2022/04/02 01:54:19;;;;;;;25.58;12.65;;;;;;;2.51;69.89;98928.03;4970538;28;20496;-83
2022/04/02 01:56:52;;;;;;;32.78;12.98;;;;;;;2.49;70.12;98927.28;5000099;28;20439;-82
2022/04/02 01:59:20;;;;;;;33.20;13.52;;;;;;;2.37;69.57;98924.59;4981124;28;20041;-83
2022/04/02 02:01:50;;;;;;;30.30;11.93;;;;;;;2.42;69.94;98926.03;4976655;28;20127;-83
2022/04/02 02:04:18;;;;;;;25.95;11.88;;;;;;;2.56;69.92;98925.91;4991246;28;20049;-83
2022/04/02 02:06:45;;;;;;;25.85;12.40;;;;;;;2.63;69.70;98926.34;5018888;28;20511;-83
2022/04/02 02:09:15;;;;;;;33.67;14.50;;;;;;;2.55;69.28;98932.94;5013529;28;20729;-83
2022/04/02 02:11:54;;;;;;;29.35;13.07;;;;;;;2.49;69.23;98935.97;4967776;28;20392;-82
2022/04/02 02:14:21;;;;;;;26.98;12.65;;;;;;;2.55;69.06;98942.59;4998338;28;20051;-82
2022/04/02 02:17:07;;;;;;;33.22;13.40;;;;;;;2.55;69.33;98939.97;5000973;28;20051;-82
2022/04/02 02:19:34;;;;;;;29.67;12.70;;;;;;;2.53;69.60;98937.44;5002189;28;20104;-83
2022/04/02 02:22:01;;;;;;;33.63;13.95;;;;;;;2.56;69.54;98954.75;4960126;28;20190;-83
2022/04/02 02:24:28;;;;;;;27.17;12.13;;;;;;;2.52;69.89;98946.28;5009577;28;20133;-82
2022/04/02 02:26:55;;;;;;;26.85;13.43;;;;;;;2.53;69.49;98949.72;5005169;28;20564;-82
2022/04/02 02:29:32;;;;;;;27.83;13.18;;;;;;;2.50;69.77;98949.94;4959510;28;20072;-83
2022/04/02 02:32:10;;;;;;;30.58;13.00;;;;;;;2.49;69.75;98949.09;4970408;28;20523;-82
2022/04/02 02:37:23;;;;;;;31.42;13.02;;;;;;;2.38;69.95;98952.44;4986096;28;20072;-82
2022/04/02 02:39:59;;;;;;;30.17;12.10;;;;;;;2.47;69.58;98952.75;5000557;28;20033;-83
2022/04/02 02:42:27;;;;;;;26.85;11.43;;;;;;;2.49;69.58;98954.31;4973560;28;20048;-83
2022/04/02 02:45:12;;;;;;;31.42;12.00;;;;;;;2.48;69.58;98962.31;4957208;28;20386;-83
2022/04/02 02:47:39;;;;;;;22.67;11.10;;;;;;;2.40;69.81;98954.97;4985733;28;20490;-82
2022/04/02 02:50:07;;;;;;;44.65;11.70;;;;;;;2.54;69.70;98954.84;4993630;28;20379;-83
2022/04/02 02:52:52;;;;;;;30.42;12.23;;;;;;;2.52;69.90;98959.38;4981683;28;20144;-83
2022/04/02 02:55:20;;;;;;;27.88;11.00;;;;;;;2.50;70.16;98965.66;5010523;28;20046;-82
2022/04/02 02:57:47;;;;;;;31.58;11.95;;;;;;;2.41;70.43;98951.41;4970689;28;20414;-82
2022/04/02 03:00:15;;;;;;;28.77;12.13;;;;;;;2.57;69.56;98964.28;5000270;28;20045;-83
2022/04/02 03:02:45;;;;;;;32.70;12.25;;;;;;;2.55;69.74;98956.53;4962164;28;20047;-83
2022/04/02 03:05:16;;;;;;;23.65;10.45;;;;;;;2.49;69.72;98966.59;4989862;28;20049;-82
2022/04/02 03:07:50;;;;;;;23.20;10.55;;;;;;;2.56;69.84;98966.06;4951815;28;20384;-83
2022/04/02 03:10:30;;;;;;;21.60;11.00;;;;;;;2.56;69.43;98978.34;4960898;28;20496;-82
2022/04/02 03:12:58;;;;;;;25.23;11.15;;;;;;;2.42;70.25;98968.81;5003263;28;20037;-82
2022/04/02 03:15:31;;;;;;;23.83;12.30;;;;;;;2.83;68.72;98975.56;4979503;28;20196;-83
2022/04/02 03:18:05;;;;;;;28.48;11.20;;;;;;;2.44;69.72;98972.16;4968377;28;20052;-82
2022/04/02 03:20:34;;;;;;;22.50;11.80;;;;;;;2.45;69.61;98976.47;4982717;28;20060;-83
2022/04/02 03:23:00;;;;;;;21.75;11.00;;;;;;;2.35;70.26;98980.66;5019760;28;20049;-82
2022/04/02 03:25:27;;;;;;;29.98;11.23;;;;;;;2.52;69.75;98975.09;4987364;28;20046;-83
2022/04/02 03:27:55;;;;;;;22.90;11.07;;;;;;;2.39;70.12;98982.09;4984905;28;20045;-83
2022/04/02 03:30:25;;;;;;;25.02;10.18;;;;;;;2.38;70.70;98983.06;4974920;28;20048;-83
2022/04/02 03:32:55;;;;;;;32.30;11.95;;;;;;;2.25;70.97;98988.28;5002474;28;20051;-83
2022/04/02 03:35:22;;;;;;;21.45;11.05;;;;;;;2.37;70.66;98984.84;5004243;28;20051;-82
2022/04/02 03:38:42;;;;;;;25.13;11.15;;;;;;;2.18;72.25;98980.00;4998986;28;20041;-83
2022/04/02 03:41:17;;;;;;;29.20;11.82;;;;;;;2.28;71.47;98987.25;4947653;28;20048;-83
2022/04/02 03:43:48;;;;;;;22.30;10.15;;;;;;;2.35;70.95;98989.34;4974315;28;20044;-83
2022/04/02 03:49:05;;;;;;;22.38;11.05;;;;;;;2.35;70.88;98993.75;4958389;28;20140;-82
2022/04/02 03:51:32;;;;;;;25.80;11.20;;;;;;;2.50;70.30;98999.72;4984841;28;20049;-83
2022/04/02 03:54:01;;;;;;;26.48;11.30;;;;;;;2.36;70.91;99001.50;4986066;28;20046;-82
2022/04/02 03:56:30;;;;;;;24.35;11.32;;;;;;;2.37;71.25;99007.59;5003056;28;20073;-83
2022/04/02 03:59:03;;;;;;;29.47;12.43;;;;;;;2.26;71.73;99005.66;4983178;28;20068;-83
2022/04/02 04:01:30;;;;;;;23.58;10.05;;;;;;;2.38;71.09;99004.00;5008482;28;20041;-83
2022/04/02 04:03:57;;;;;;;23.17;10.57;;;;;;;2.31;71.23;99008.81;5007611;28;20780;-83
2022/04/02 04:06:25;;;;;;;24.50;10.90;;;;;;;2.32;71.23;99007.91;5005495;28;20182;-82
2022/04/02 04:08:52;;;;;;;28.20;10.63;;;;;;;2.21;71.91;99020.03;5002810;28;20043;-84
2022/04/02 04:11:19;;;;;;;23.80;9.95;;;;;;;2.28;71.53;99018.69;4986923;28;20512;-84
2022/04/02 04:13:56;;;;;;;19.92;10.18;;;;;;;2.26;71.79;99026.63;4964001;28;20116;-84
2022/04/02 04:16:24;;;;;;;24.77;10.57;;;;;;;2.26;72.37;99025.81;4983631;28;20388;-84
2022/04/02 04:18:51;;;;;;;22.88;10.90;;;;;;;2.34;71.77;99026.97;4977364;28;20038;-84
2022/04/02 04:21:18;;;;;;;27.63;12.27;;;;;;;2.31;72.17;99026.31;4974329;28;20069;-83
2022/04/02 04:23:49;;;;;;;26.48;11.13;;;;;;;2.25;73.21;99027.59;5013212;28;20038;-83
2022/04/02 04:26:16;;;;;;;18.83;10.02;;;;;;;2.23;73.02;99020.78;4980187;28;20413;-83
2022/04/02 04:28:45;;;;;;;22.08;9.77;;;;;;;2.19;73.21;99020.16;4997065;28;20046;-83
2022/04/02 04:31:17;;;;;;;21.30;11.00;;;;;;;2.26;72.78;99029.25;5013809;28;20045;-82
2022/04/02 04:33:45;;;;;;;20.98;9.80;;;;;;;2.35;72.56;99025.19;5003042;28;20100;-83
2022/04/02 04:36:13;;;;;;;22.35;9.13;;;;;;;2.23;73.08;99037.31;5011691;28;20064;-83
2022/04/02 04:38:42;;;;;;;21.00;8.98;;;;;;;2.31;72.55;99037.63;4992046;28;20055;-83
2022/04/02 04:41:13;;;;;;;20.50;10.02;;;;;;;2.17;73.15;99035.13;4989702;28;20519;-83
2022/04/02 04:43:41;;;;;;;24.92;10.60;;;;;;;2.24;72.74;99039.03;4990664;28;20063;-83
2022/04/02 04:46:11;;;;;;;18.17;9.70;;;;;;;2.26;73.08;99042.34;4998748;28;20046;-83
2022/04/02 04:48:39;;;;;;;24.67;9.77;;;;;;;2.17;73.15;99043.81;4984828;28;20127;-83
2022/04/02 04:51:07;;;;;;;23.27;9.88;;;;;;;2.22;73.07;99043.50;4983284;28;20042;-83
2022/04/02 04:53:34;;;;;;;20.35;9.05;;;;;;;2.27;73.18;99061.53;4975211;28;20588;-83
2022/04/02 04:56:04;;;;;;;20.15;9.48;;;;;;;2.25;73.02;99060.81;4986029;28;20108;-83
2022/04/02 04:58:32;;;;;;;22.65;9.82;;;;;;;2.11;73.44;99064.31;4950175;28;20050;-84
2022/04/02 05:01:03;;;;;;;21.85;8.57;;;;;;;2.18;73.29;99057.75;4994139;28;20466;-83
2022/04/02 05:03:32;;;;;;;19.35;8.75;;;;;;;2.23;72.85;99063.50;4966209;28;20053;-83
2022/04/02 05:06:02;;;;;;;20.88;9.63;;;;;;;2.06;73.13;99067.28;4949653;28;20078;-83
2022/04/02 05:08:31;;;;;;;18.25;8.43;;;;;;;2.12;72.35;99071.25;4969160;28;20042;-83
2022/04/02 05:11:00;;;;;;;21.90;8.25;;;;;;;2.09;72.21;99076.69;4969885;28;20041;-83
2022/04/02 05:13:34;;;;;;;18.77;9.20;;;;;;;2.10;72.14;99079.19;4968533;28;20042;-83
2022/04/02 05:16:02;;;;;;;20.00;9.15;;;;;;;2.08;72.60;99075.84;4968100;28;20049;-83
2022/04/02 05:18:29;;;;;;;18.70;8.95;;;;;;;2.04;72.33;99077.00;4965063;28;20058;-83
2022/04/02 05:20:57;;;;;;;18.77;8.77;;;;;;;1.98;72.23;99076.53;4972187;28;20041;-83
2022/04/02 05:23:25;;;;;;;21.98;8.10;;;;;;;1.98;72.44;99079.16;4968356;28;20049;-83
2022/04/02 05:25:55;;;;;;;18.55;8.93;;;;;;;2.08;72.04;99075.00;4957413;28;20446;-83
2022/04/02 05:28:25;;;;;;;20.48;9.05;;;;;;;2.00;72.07;99077.28;4936264;28;20446;-83
2022/04/02 05:30:52;;;;;;;20.48;8.73;;;;;;;2.06;72.18;99084.72;4985381;28;20065;-83
2022/04/02 05:33:19;;;;;;;17.65;8.32;;;;;;;2.26;70.37;99091.28;4972198;28;20045;-84
2022/04/02 05:36:06;;;;;;;19.33;7.85;;;;;;;1.99;72.07;99089.56;4926183;28;20141;-84
2022/04/02 05:38:33;;;;;;;17.67;6.82;;;;;;;2.08;71.02;99096.78;4970778;28;20056;-84
2022/04/02 05:41:00;;;;;;;15.57;7.82;;;;;;;2.03;71.71;99090.19;4974860;28;20046;-83
2022/04/02 05:43:27;;;;;;;23.33;7.25;;;;;;;2.02;71.56;99098.97;4969068;28;20504;-83
2022/04/02 05:45:53;;;;;;;12.98;6.00;;;;;;;1.98;71.42;99098.31;4985832;28;20115;-83
2022/04/02 05:48:24;;;;;;;13.93;7.22;;;;;;;2.12;70.82;99105.31;4990391;28;20073;-83
2022/04/02 05:50:50;;;;;;;21.10;7.93;;;;;;;2.11;71.43;99106.22;4987395;28;20566;-83
2022/04/02 05:53:23;;;;;;;17.80;7.40;;;;;;;1.94;72.06;99107.34;4974121;28;20041;-83
2022/04/02 05:55:50;;;;;;;19.50;8.55;;;;;;;1.91;72.19;99118.84;4949313;28;20092;-83
2022/04/02 05:58:17;;;;;;;20.33;7.57;;;;;;;2.06;71.61;99124.00;4966108;28;20046;-83
2022/04/02 06:00:43;;;;;;;17.42;7.05;;;;;;;1.87;72.49;99132.22;4996609;28;20058;-84
2022/04/02 06:03:14;;;;;;;13.93;7.68;;;;;;;2.26;70.83;99125.34;4973012;28;20042;-83
2022/04/02 06:05:44;;;;;;;17.13;6.72;;;;;;;2.10;70.90;99131.56;5005283;28;20402;-83
2022/04/02 06:08:11;;;;;;;18.48;8.13;;;;;;;1.93;71.67;99134.44;4991430;28;20046;-84
2022/04/02 06:10:37;;;;;;;19.60;8.63;;;;;;;1.99;71.41;99130.63;5015655;28;20880;-83
2022/04/02 06:13:05;;;;;;;20.60;9.05;;;;;;;2.23;71.07;99138.66;5005447;28;20056;-83
2022/04/02 06:15:31;;;;;;;18.83;8.60;;;;;;;2.13;70.63;99135.78;4964421;28;20042;-83
2022/04/02 06:17:58;;;;;;;22.73;9.90;;;;;;;2.04;70.70;99145.09;4951791;28;20050;-84
2022/04/02 06:20:25;;;;;;;20.58;9.15;;;;;;;1.91;71.11;99152.03;4980608;28;20043;-83
2022/04/02 06:22:51;;;;;;;21.92;9.95;;;;;;;1.97;71.19;99148.19;4985517;28;20490;-83
2022/04/02 06:25:18;;;;;;;26.73;10.00;;;;;;;1.92;71.36;99149.31;4985004;28;20521;-83
2022/04/02 06:27:46;;;;;;;22.05;9.30;;;;;;;1.88;70.93;99166.19;4983053;28;20042;-83
2022/04/02 06:30:17;;;;;;;27.23;11.80;;;;;;;1.71;72.41;99167.22;4985690;28;20080;-83
2022/04/02 06:32:51;;;;;;;20.27;9.98;;;;;;;1.95;70.87;99182.31;4971443;28;20065;-83
2022/04/02 06:35:19;;;;;;;22.98;10.75;;;;;;;1.96;71.34;99173.53;4971410;28;20050;-82
2022/04/02 06:37:50;;;;;;;25.35;10.32;;;;;;;1.97;70.69;99177.00;4968004;28;20131;-82
2022/04/02 06:40:23;;;;;;;27.60;12.07;;;;;;;1.81;71.08;99185.81;4991565;28;20489;-81
2022/04/02 06:42:51;;;;;;;22.95;11.25;;;;;;;1.73;71.60;99177.59;4956206;28;20056;-81
2022/04/02 06:45:38;;;;;;;28.95;11.52;;;;;;;1.75;71.68;99183.56;4971085;28;20042;-82
2022/04/02 06:48:05;;;;;;;26.30;11.40;;;;;;;1.84;71.49;99195.25;4984102;28;20046;-82
2022/04/02 06:50:33;;;;;;;28.40;12.50;;;;;;;1.86;71.31;99193.38;4950687;28;20045;-82
2022/04/02 06:53:02;;;;;;;24.15;11.38;;;;;;;1.99;70.40;99186.44;4995806;28;20046;-82
2022/04/02 06:55:37;;;;;;;21.63;9.50;;;;;;;2.06;70.12;99207.81;4984389;28;22392;-82
2022/04/02 06:58:04;;;;;;;29.35;11.60;;;;;;;2.14;70.22;99197.72;4984033;28;20516;-82
2022/04/02 07:00:32;;;;;;;33.85;12.32;;;;;;;1.73;71.21;99195.91;4988457;28;20037;-82
2022/04/02 07:02:58;;;;;;;29.10;11.57;;;;;;;1.72;71.54;99205.53;4984729;28;20057;-82
2022/04/02 07:05:25;;;;;;;23.30;11.52;;;;;;;1.84;71.38;99203.94;4984162;28;20053;-81
2022/04/02 07:07:52;;;;;;;26.83;11.60;;;;;;;1.80;72.03;99214.69;4981233;28;20498;-81
2022/04/02 07:10:19;;;;;;;22.80;10.57;;;;;;;1.87;71.59;99213.38;5006302;28;20053;-84
2022/04/02 07:12:46;;;;;;;26.27;10.63;;;;;;;1.90;71.31;99221.88;4985590;28;20061;-82
2022/04/02 07:15:13;;;;;;;27.25;12.85;;;;;;;1.91;71.53;99223.56;4964361;28;20060;-82
2022/04/02 07:17:40;;;;;;;25.60;11.15;;;;;;;1.82;71.43;99239.00;4981485;28;20051;-82
2022/04/02 07:20:08;;;;;;;25.05;11.90;;;;;;;1.81;70.95;99245.19;4999407;28;20386;-82
2022/04/02 07:22:38;;;;;;;28.80;11.98;;;;;;;1.92;71.17;99240.13;4965812;28;20046;-82
2022/04/02 07:25:05;;;;;;;28.60;12.88;;;;;;;1.77;70.49;99248.91;4966550;28;20406;-82
2022/04/02 07:27:33;;;;;;;31.70;12.27;;;;;;;2.02;70.43;99241.22;4978854;28;20402;-82
2022/04/02 07:30:03;;;;;;;39.42;14.32;;;;;;;1.71;70.74;99261.44;4968939;28;20046;-83
2022/04/02 07:32:31;;;;;;;28.70;12.35;;;;;;;1.83;70.64;99267.72;4996512;28;20501;-81
2022/04/02 07:34:57;;;;;;;27.08;12.48;;;;;;;2.05;69.49;99258.53;4963845;28;20165;-83
2022/04/02 07:37:44;;;;;;;35.45;12.77;;;;;;;1.73;70.01;99259.59;4979158;28;20050;-81
2022/04/02 07:40:22;;;;;;;32.40;11.57;;;;;;;1.85;69.41;99275.47;4934725;28;20042;-82
2022/04/02 07:43:35;;;;;;;30.55;13.70;;;;;;;1.81;70.62;99260.91;4929526;28;20128;-84
2022/04/02 07:46:06;;;;;;;34.00;12.68;;;;;;;1.84;70.91;99265.94;4894704;28;20050;-82
2022/04/02 07:48:37;;;;;;;28.33;12.02;;;;;;;2.00;70.03;99298.06;4951808;28;20050;-82
2022/04/02 07:51:09;;;;;;;28.25;12.98;;;;;;;2.00;69.55;99274.50;4944116;28;20069;-82
2022/04/02 07:53:42;;;;;;;31.02;13.32;;;;;;;1.74;70.44;99282.19;4946177;28;20054;-82
2022/04/02 07:56:13;;;;;;;35.60;12.20;;;;;;;1.71;70.99;99285.00;4964274;28;20100;-82
2022/04/02 07:58:45;;;;;;;23.63;12.95;;;;;;;1.86;70.03;99285.84;4951330;28;20042;-82
2022/04/02 08:01:17;;;;;;;28.30;11.32;;;;;;;1.80;69.57;99285.38;4953325;28;20049;-81
2022/04/02 08:03:46;;;;;;;35.60;12.13;;;;;;;1.77;70.30;99302.09;4947479;28;20050;-82
2022/04/02 08:06:15;;;;;;;30.83;13.73;;;;;;;2.08;68.33;99298.44;4930119;28;20149;-82
2022/04/02 08:08:43;;;;;;;33.03;12.00;;;;;;;1.93;69.75;99300.25;4924733;28;20106;-81
2022/04/02 08:11:10;;;;;;;30.13;12.57;;;;;;;2.02;69.56;99305.84;4957987;28;20629;-82
2022/04/02 08:13:41;;;;;;;32.75;13.10;;;;;;;2.08;69.27;99303.69;4938932;28;20415;-80
2022/04/02 08:16:08;;;;;;;27.92;12.18;;;;;;;2.03;68.92;99305.72;4945290;28;20067;-82
2022/04/02 08:18:39;;;;;;;28.23;12.80;;;;;;;2.00;69.89;99310.34;4949548;28;20038;-82
2022/04/02 08:21:07;;;;;;;30.95;12.15;;;;;;;1.98;69.94;99315.66;4951591;28;20758;-82
2022/04/02 08:23:36;;;;;;;35.63;14.00;;;;;;;2.02;68.65;99309.31;4973256;28;20046;-82
2022/04/02 08:26:09;;;;;;;27.13;12.52;;;;;;;1.85;70.03;99310.31;4987326;28;20049;-82
2022/04/02 08:29:10;;;;;;;31.45;11.55;;;;;;;1.84;70.53;99324.38;4971214;28;20058;-79
2022/04/02 08:31:57;;;;;;;30.83;11.20;;;;;;;1.86;70.98;99325.13;4931514;28;20060;-82
2022/04/02 08:34:39;;;;;;;34.22;12.70;;;;;;;1.87;70.14;99329.41;4969049;28;20543;-82
2022/04/02 08:37:15;;;;;;;30.10;12.77;;;;;;;1.94;70.45;99329.88;4966084;28;20042;-82
2022/04/02 08:39:52;;;;;;;28.95;12.95;;;;;;;1.82;70.45;99347.16;4992168;28;20438;-82
2022/04/02 08:42:45;;;;;;;26.40;11.98;;;;;;;1.71;71.10;99344.38;4985730;28;20052;-81
2022/04/02 08:45:13;;;;;;;35.47;12.70;;;;;;;1.88;70.92;99353.81;4932939;28;20088;-82
2022/04/02 08:48:10;;;;;;;33.72;12.20;;;;;;;1.71;69.38;99349.59;4989181;28;20042;-82
2022/04/02 08:50:42;;;;;;;21.67;10.63;;;;;;;1.75;69.42;99358.94;4945055;28;20146;-82
2022/04/02 08:53:18;;;;;;;29.13;11.32;;;;;;;1.80;68.39;99371.75;4992662;28;20042;-82
2022/04/02 08:56:06;;;;;;;26.20;11.23;;;;;;;1.95;68.71;99362.97;4960118;28;20046;-83
2022/04/02 08:59:04;;;;;;;26.70;10.77;;;;;;;1.71;69.50;99373.16;4986964;28;20132;-82
2022/04/02 09:01:58;;;;;;;30.75;12.07;;;;;;;1.76;70.64;99378.97;5029165;22;20065;-87
2022/04/02 09:05:06;;;;;;;27.80;11.52;;;;;;;1.90;70.14;99420.00;4915518;28;20131;-87
2022/04/02 09:07:55;;;;;;;28.67;11.23;;;;;;;1.82;68.71;99399.53;4904014;28;20091;-87
2022/04/02 09:10:57;;;;;;;26.35;10.95;;;;;;;1.88;67.11;99393.94;4917773;28;20057;-86
2022/04/02 09:13:48;;;;;;;27.48;10.48;;;;;;;1.71;68.20;99394.94;4916613;28;20049;-87
2022/04/02 09:16:39;;;;;;;25.92;11.18;;;;;;;1.88;68.89;99395.69;4962549;23;20058;-87
2022/04/02 09:19:21;;;;;;;25.52;11.35;;;;;;;1.88;68.67;99419.25;4948285;28;20056;-87
2022/04/02 09:22:06;;;;;;;27.83;10.98;;;;;;;1.71;68.21;99397.56;5000122;28;20129;-87
2022/04/02 09:24:58;;;;;;;20.73;9.63;;;;;;;1.45;68.64;99403.44;4991043;28;20141;-87
2022/04/02 09:27:32;;;;;;;24.83;10.93;;;;;;;1.76;68.90;99399.91;4942114;28;20050;-87
2022/04/02 09:30:44;;;;;;;28.30;11.20;;;;;;;1.67;68.11;99405.66;5000297;28;20070;-87
2022/04/02 09:33:17;;;;;;;32.28;12.35;;;;;;;2.06;68.08;99412.06;4915933;28;20050;-87
2022/04/02 09:36:09;;;;;;;35.10;11.52;;;;;;;1.67;69.44;99413.53;5004929;28;20045;-87
2022/04/02 09:38:49;;;;;;;28.10;10.82;;;;;;;1.77;69.17;99414.66;4987835;28;20132;-87
2022/04/02 09:41:15;;;;;;;30.90;10.70;;;;;;;1.71;70.25;99418.50;4990265;28;20049;-87
2022/04/02 09:44:12;;;;;;;32.67;12.18;;;;;;;1.52;70.28;99428.34;4995581;28;20410;-86
2022/04/02 09:47:00;;;;;;;33.80;12.32;;;;;;;1.66;70.59;99414.47;4925610;28;20410;-86
2022/04/02 09:49:42;;;;;;;29.92;12.68;;;;;;;1.85;70.69;99424.69;4960369;28;20063;-86
2022/04/02 09:52:09;;;;;;;28.80;10.77;;;;;;;1.68;69.91;99420.44;4964291;28;20041;-86
2022/04/02 09:54:45;;;;;;;23.60;10.60;;;;;;;1.81;68.83;99449.38;4997230;28;20038;-86
2022/04/02 09:57:34;;;;;;;28.70;11.95;;;;;;;2.04;68.23;99425.28;4995908;28;20431;-86
2022/04/02 10:00:08;;;;;;;25.23;10.20;;;;;;;1.77;68.85;99425.13;4954423;28;20378;-86
2022/04/02 10:02:57;;;;;;;28.35;11.43;;;;;;;1.61;69.29;99426.97;5023685;28;20045;-86
2022/04/02 10:05:35;;;;;;;29.25;11.30;;;;;;;1.73;68.98;99436.69;4964129;28;20371;-86
2022/04/02 10:08:06;;;;;;;34.67;13.27;;;;;;;1.85;70.44;99425.53;4956787;28;20159;-86
2022/04/02 10:10:34;;;;;;;35.22;12.68;;;;;;;1.89;69.53;99432.28;5000278;28;20045;-86
2022/04/02 10:13:02;;;;;;;31.95;12.07;;;;;;;2.01;69.51;99437.69;5002805;28;20224;-86
2022/04/02 10:15:30;;;;;;;25.42;10.77;;;;;;;1.71;69.77;99433.34;5005387;28;20053;-86
2022/04/02 10:18:02;;;;;;;25.92;11.95;;;;;;;1.82;69.66;99440.56;5005655;28;20068;-87
2022/04/02 10:20:30;;;;;;;28.13;11.20;;;;;;;1.83;68.83;99450.09;4976879;28;20320;-86
2022/04/02 10:23:12;;;;;;;30.30;12.82;;;;;;;1.81;68.76;99444.13;4993851;28;20073;-86
2022/04/02 10:26:05;;;;;;;33.60;12.38;;;;;;;1.79;68.46;99457.31;4959091;28;20124;-86
2022/04/02 10:28:33;;;;;;;29.48;12.02;;;;;;;1.94;68.30;99448.56;4963153;28;20069;-86
2022/04/02 10:31:01;;;;;;;28.38;12.43;;;;;;;1.81;67.92;99459.84;5010118;28;20049;-86
2022/04/02 10:33:31;;;;;;;25.33;12.05;;;;;;;1.77;68.03;99464.41;4981507;28;20063;-87
2022/04/02 10:36:01;;;;;;;31.25;11.68;;;;;;;1.89;66.85;99463.69;5006618;28;20132;-86
2022/04/02 10:38:35;;;;;;;38.63;12.70;;;;;;;1.89;66.26;99465.47;4973153;28;20049;-86
2022/04/02 10:41:12;;;;;;;27.17;12.35;;;;;;;1.99;65.95;99458.75;4964806;28;20049;-86
2022/04/02 10:43:52;;;;;;;39.97;13.23;;;;;;;1.87;67.20;99464.72;4976990;28;20491;-86
2022/04/02 10:46:21;;;;;;;31.10;12.98;;;;;;;1.90;66.43;99465.38;4958052;28;20048;-86
2022/04/02 10:48:54;;;;;;;26.80;12.23;;;;;;;1.97;67.53;99458.00;4993808;28;20049;-86
2022/04/02 10:51:23;;;;;;;39.67;14.18;;;;;;;2.26;67.16;99473.75;5013667;28;20083;-86
2022/04/02 10:54:10;;;;;;;32.65;11.95;;;;;;;2.23;65.43;99466.06;4984110;28;20055;-86
2022/04/02 10:56:39;;;;;;;36.50;14.02;;;;;;;2.09;66.60;99474.78;4984701;28;20084;-86
2022/04/02 10:59:08;;;;;;;37.28;13.10;;;;;;;2.19;66.25;99470.69;5007880;28;20049;-85
2022/04/02 11:01:39;;;;;;;32.85;12.70;;;;;;;1.94;66.05;99479.13;4997166;28;20057;-86
2022/04/02 11:04:33;;;;;;;33.20;13.57;;;;;;;1.99;67.50;99479.72;5023050;28;20056;-86
2022/04/02 11:07:00;;;;;;;26.17;11.48;;;;;;;2.12;66.83;99516.50;4941565;28;20539;-86
2022/04/02 11:09:36;;;;;;;34.38;12.07;;;;;;;1.85;66.53;99490.13;4977870;28;20042;-87
2022/04/02 11:12:12;;;;;;;26.02;12.73;;;;;;;2.16;65.61;99491.78;4972631;28;20037;-86
2022/04/02 11:14:49;;;;;;;29.48;12.82;;;;;;;2.35;64.40;99495.00;4978537;28;20131;-86
2022/04/02 11:17:33;;;;;;;28.48;12.85;;;;;;;1.87;65.08;99499.59;4989185;28;20045;-86
2022/04/02 11:20:07;;;;;;;25.08;13.00;;;;;;;1.94;66.28;99490.44;4940896;28;20041;-88
2022/04/02 11:31:30;;;;;;;34.45;14.63;;;;;;;2.28;66.30;99483.19;4995711;28;20095;-86
2022/04/02 11:34:08;;;;;;;29.27;13.15;;;;;;;2.07;66.50;99503.66;4982690;28;20041;-86
2022/04/02 11:36:46;;;;;;;30.92;13.70;;;;;;;2.16;67.84;99507.50;4988480;28;20068;-86
2022/04/02 11:39:33;;;;;;;27.90;12.43;;;;;;;1.97;66.98;99514.78;4999049;28;20052;-86
2022/04/02 11:42:01;;;;;;;33.17;13.32;;;;;;;1.99;66.09;99502.44;4960430;28;20045;-86
2022/04/02 11:44:37;;;;;;;32.70;13.30;;;;;;;2.15;66.90;99503.22;4972981;28;20049;-86
2022/04/02 11:47:06;;;;;;;33.35;13.85;;;;;;;2.14;67.22;99510.22;5006602;28;20041;-87
2022/04/02 11:53:46;;;;;;;32.25;14.20;;;;;;;2.17;66.07;99514.44;4979671;28;20071;-87
2022/04/02 11:56:29;;;;;;;35.53;14.95;;;;;;;2.26;66.73;99521.75;4983070;28;20068;-87
2022/04/02 11:58:58;;;;;;;38.35;14.75;;;;;;;2.13;67.36;99519.00;4984564;28;20060;-86
2022/04/02 12:01:26;;;;;;;38.17;15.82;;;;;;;2.18;68.00;99526.59;5010824;28;21280;-86
2022/04/02 12:04:09;;;;;;;31.90;14.70;;;;;;;2.21;67.43;99528.19;4988464;28;20049;-87
2022/04/02 12:06:36;;;;;;;32.55;15.57;;;;;;;2.22;67.97;99525.50;4988851;28;20441;-87
2022/04/02 12:09:29;;;;;;;33.05;13.98;;;;;;;2.14;68.06;99530.34;4960759;28;20055;-86
2022/04/02 12:12:23;;;;;;;39.13;15.97;;;;;;;2.21;67.99;99533.44;4918942;28;20083;-87